createdAt,value
2023-05-10T00:00:40.409Z,4.85
2023-05-10T00:04:40.504Z,4.87
2023-05-10T00:08:40.697Z,4.85
2023-05-10T00:12:40.406Z,4.7
2023-05-10T00:16:40.601Z,4.43
2023-05-10T00:20:40.066Z,4.72
2023-05-10T00:24:40.478Z,5.1
2023-05-10T00:28:40.449Z,4.32
2023-05-10T00:32:40.515Z,5.43
2023-05-10T00:36:40.448Z,5.1
2023-05-10T00:40:39.991Z,5.37
2023-05-10T00:44:41.236Z,5.07
2023-05-10T00:48:40.304Z,5.22
2023-05-10T00:52:41.136Z,5.1
2023-05-10T00:56:40.327Z,5.43
2023-05-10T01:00:40.178Z,5.4
2023-05-10T01:04:40.681Z,5
2023-05-10T01:08:39.252Z,4.65
2023-05-10T01:12:40.615Z,5.6
2023-05-10T01:16:39.820Z,5.6
2023-05-10T01:20:40.987Z,5.22
2023-05-10T01:24:40.426Z,5.6
2023-05-10T01:28:41.313Z,5.75
2023-05-10T01:32:40.561Z,6.43
2023-05-10T01:36:39.734Z,6.82
2023-05-10T01:40:40.373Z,5.85
2023-05-10T01:44:40.484Z,7.32
2023-05-10T01:48:41.042Z,5.9
2023-05-10T01:52:40.898Z,6.55
2023-05-10T01:56:40.562Z,5.85
2023-05-10T02:00:40.051Z,5.7
2023-05-10T02:04:40.723Z,6.18
2023-05-10T02:08:40.515Z,6.18
2023-05-10T02:12:39.529Z,6.12
2023-05-10T02:16:40.545Z,5.62
2023-05-10T02:20:40.615Z,5.55
2023-05-10T02:24:40.424Z,6.15
2023-05-10T02:28:39.515Z,6.3
2023-05-10T02:32:40.539Z,6.35
2023-05-10T02:36:39.868Z,5.53
2023-05-10T02:40:40.415Z,5.8
2023-05-10T02:44:40.418Z,6.1
2023-05-10T02:48:39.288Z,6.57
2023-05-10T02:52:40.909Z,6.12
2023-05-10T02:56:40.521Z,6.03
2023-05-10T03:00:40.100Z,6.15
2023-05-10T03:04:40.292Z,5.4
2023-05-10T03:08:39.295Z,7.5
2023-05-10T03:12:40.490Z,5.9
2023-05-10T03:16:42.063Z,5.55
2023-05-10T03:20:39.990Z,6.25
2023-05-10T03:24:40.967Z,5.12
2023-05-10T03:28:40.515Z,6.18
2023-05-10T03:32:39.479Z,5.15
2023-05-10T03:36:40.436Z,5.55
2023-05-10T03:40:39.825Z,4.7
2023-05-10T03:44:40.306Z,5.15
2023-05-10T03:48:40.261Z,4.62
2023-05-10T03:52:40.391Z,5.1
2023-05-10T03:56:39.857Z,4.8
2023-05-10T04:00:40.454Z,3.95
2023-05-10T04:04:40.874Z,4.72
2023-05-10T04:08:40.585Z,4.62
2023-05-10T04:12:39.318Z,4.18
2023-05-10T04:16:40.614Z,4.55
2023-05-10T04:20:39.497Z,4.12
2023-05-10T04:24:41.106Z,3.87
2023-05-10T04:28:40.652Z,3.97
2023-05-10T04:32:39.434Z,5.03
2023-05-10T04:36:41.216Z,4.05
2023-05-10T04:40:40.098Z,3.9
2023-05-10T04:44:40.439Z,3.53
2023-05-10T04:48:39.338Z,3.42
2023-05-10T04:52:40.487Z,3.53
2023-05-10T04:56:39.769Z,3.4
2023-05-10T05:00:40.670Z,3.08
2023-05-10T05:04:40.634Z,3.58
2023-05-10T05:08:40.368Z,3.78
2023-05-10T05:12:40.913Z,3.3
2023-05-10T05:16:40.682Z,3.62
2023-05-10T05:20:41.094Z,3.2
2023-05-10T05:24:40.410Z,3.15
2023-05-10T05:28:40.594Z,3.3
2023-05-10T05:32:39.472Z,3.92
2023-05-10T05:36:40.499Z,3.05
2023-05-10T05:40:41.036Z,3.25
2023-05-10T05:44:40.448Z,3.25
2023-05-10T05:48:40.446Z,3.35
2023-05-10T05:52:40.491Z,3.33
2023-05-10T05:56:40.435Z,3
2023-05-10T06:00:40.648Z,2.75
2023-05-10T06:04:42.859Z,2.3
2023-05-10T06:08:40.376Z,2.25
2023-05-10T06:12:40.700Z,1.92
2023-05-10T06:16:40.536Z,2.92
2023-05-10T06:20:40.670Z,4.1
2023-05-10T06:24:40.494Z,2.4
2023-05-10T06:28:40.397Z,1.9
2023-05-10T06:32:40.389Z,2.5
2023-05-10T06:36:40.720Z,2.25
2023-05-10T06:40:40.421Z,2.12
2023-05-10T06:44:40.688Z,2.58
2023-05-10T06:48:39.443Z,2
2023-05-10T06:52:40.557Z,2.15
2023-05-10T06:56:40.617Z,1.9
2023-05-10T07:00:40.560Z,1.95
2023-05-10T07:04:40.725Z,2.05
2023-05-10T07:08:40.221Z,2.05
2023-05-10T07:12:40.304Z,2.03
2023-05-10T07:16:40.794Z,1.67
2023-05-10T07:20:40.494Z,1.87
2023-05-10T07:24:40.502Z,1.9
2023-05-10T07:28:40.565Z,2.08
2023-05-10T07:32:40.772Z,1.8
2023-05-10T07:36:40.213Z,2.3
2023-05-10T07:40:40.572Z,2.4
2023-05-10T07:44:40.403Z,2.42
2023-05-10T07:48:41.017Z,2.08
2023-05-10T07:52:41.165Z,2.15
2023-05-10T07:56:40.122Z,1.7
2023-05-10T08:00:40.015Z,1.62
2023-05-10T08:04:40.273Z,1.85
2023-05-10T08:08:40.964Z,1.87
2023-05-10T08:12:40.441Z,2.1
2023-05-10T08:16:40.651Z,1.42
2023-05-10T08:20:41.248Z,2.4
2023-05-10T08:24:40.444Z,2.08
2023-05-10T08:28:40.508Z,1.87
2023-05-10T08:32:40.372Z,1.85
2023-05-10T08:36:40.506Z,1.95
2023-05-10T08:40:41.209Z,2.67
2023-05-10T08:44:40.772Z,2.1
2023-05-10T08:48:40.648Z,2.75
2023-05-10T08:52:40.672Z,1.77
2023-05-10T08:56:41.239Z,1.2
2023-05-10T09:00:40.814Z,2.1
2023-05-10T09:04:40.596Z,2.47
2023-05-10T09:08:40.922Z,1.52
2023-05-10T09:12:40.657Z,2.05
2023-05-10T09:16:40.602Z,1.77
2023-05-10T09:20:40.620Z,1.37
2023-05-10T09:24:40.392Z,2.3
2023-05-10T09:28:40.460Z,1.65
2023-05-10T09:32:40.418Z,1.3
2023-05-10T09:36:40.551Z,1.87
2023-05-10T09:40:40.576Z,1.58
2023-05-10T09:44:40.429Z,2.12
2023-05-10T09:48:40.466Z,1.75
2023-05-10T09:52:40.472Z,2.25
2023-05-10T09:56:40.536Z,1.9
2023-05-10T10:00:40.741Z,1.4
2023-05-10T10:04:40.016Z,1.3
2023-05-10T10:08:40.582Z,1.98
2023-05-10T10:12:39.382Z,1.6
2023-05-10T10:16:51.640Z,1.67
2023-05-10T10:20:41.223Z,1.5
2023-05-10T10:24:40.367Z,1.5
2023-05-10T10:28:40.431Z,1.77
2023-05-10T10:32:40.573Z,1.55
2023-05-10T10:36:40.207Z,2.1
2023-05-10T10:40:40.621Z,1.55
2023-05-10T10:44:40.467Z,1.6
2023-05-10T10:48:40.599Z,2.72
2023-05-10T10:52:40.438Z,1.45
2023-05-10T10:56:40.119Z,1.52
2023-05-10T11:00:40.015Z,1.73
2023-05-10T11:04:40.534Z,2.28
2023-05-10T11:08:40.737Z,1.92
2023-05-10T11:12:40.391Z,1.37
2023-05-10T11:16:40.137Z,1.35
2023-05-10T11:20:40.257Z,1.77
2023-05-10T11:24:39.611Z,2.17
2023-05-10T11:28:40.453Z,1.17
2023-05-10T11:32:40.467Z,1.17
2023-05-10T11:36:39.652Z,1.65
2023-05-10T11:40:40.591Z,1.48
2023-05-10T11:44:40.512Z,1.23
2023-05-10T11:48:40.498Z,1.52
2023-05-10T11:52:40.395Z,1.62
2023-05-10T11:56:40.426Z,1.1
2023-05-10T12:00:40.732Z,1.17
2023-05-10T12:04:41.011Z,2.05
2023-05-10T12:08:40.638Z,1.5
2023-05-10T12:12:40.805Z,1.55
2023-05-10T12:16:40.450Z,2
2023-05-10T12:20:40.691Z,1.9
2023-05-10T12:24:40.393Z,1.1
2023-05-10T12:28:41.034Z,2.2
2023-05-10T12:32:40.671Z,1.33
2023-05-10T12:36:40.368Z,1.48
2023-05-10T12:40:40.902Z,1.4
2023-05-10T12:44:40.220Z,1.6
2023-05-10T12:48:40.942Z,1.7
2023-05-10T12:52:40.635Z,1.37
2023-05-10T12:56:40.525Z,1.3
2023-05-10T13:00:40.644Z,1.6
2023-05-10T13:04:40.717Z,1.27
2023-05-10T13:08:40.484Z,1.6
2023-05-10T13:12:40.587Z,1.55
2023-05-10T13:16:40.716Z,0.95
2023-05-10T13:20:40.811Z,1.08
2023-05-10T13:24:40.557Z,1.2
2023-05-10T13:28:40.410Z,1.48
2023-05-10T13:32:40.997Z,1.4
2023-05-10T13:36:40.472Z,2.22
2023-05-10T13:40:39.783Z,1.4
2023-05-10T13:44:41.188Z,1.48
2023-05-10T13:48:40.604Z,1.5
2023-05-10T13:52:40.997Z,1.37
2023-05-10T13:56:40.384Z,1.6
2023-05-10T14:00:41.005Z,1.37
2023-05-10T14:04:40.986Z,1.27
2023-05-10T14:08:41.019Z,1.33
2023-05-10T14:12:40.648Z,1.23
2023-05-10T14:16:40.924Z,1.73
2023-05-10T14:20:41.161Z,1.42
2023-05-10T14:24:40.429Z,1.55
2023-05-10T14:28:40.560Z,1.3
2023-05-10T14:32:40.642Z,1.5
2023-05-10T14:36:40.423Z,1.45
2023-05-10T14:40:40.829Z,1.6
2023-05-10T14:44:40.588Z,1.3
2023-05-10T14:48:40.741Z,1.37
2023-05-10T14:52:41.029Z,1.25
2023-05-10T14:56:40.242Z,1.5
2023-05-10T15:00:40.432Z,1.1
2023-05-10T15:04:40.357Z,1.4
2023-05-10T15:08:40.407Z,1.33
2023-05-10T15:12:40.587Z,1.1
2023-05-10T15:16:40.474Z,1.2
2023-05-10T15:20:39.797Z,1.58
2023-05-10T15:24:40.222Z,1.5
2023-05-10T15:28:40.462Z,1.42
2023-05-10T15:32:40.296Z,1.85
2023-05-10T15:36:40.423Z,1.48
2023-05-10T15:40:40.708Z,1.37
2023-05-10T15:44:40.445Z,1.02
2023-05-10T15:48:39.714Z,1.23
2023-05-10T15:52:40.378Z,1.42
2023-05-10T15:56:40.524Z,1.2
2023-05-10T16:00:40.578Z,1.5
2023-05-10T16:04:40.833Z,1.3
2023-05-10T16:08:40.552Z,1.58
2023-05-10T16:12:40.435Z,1.5
2023-05-10T16:16:39.498Z,1.3
2023-05-10T16:20:40.585Z,1.58
2023-05-10T16:24:40.481Z,1.67
2023-05-10T16:28:40.950Z,1.4
2023-05-10T16:32:40.338Z,1.7
2023-05-10T16:36:40.347Z,1.5
2023-05-10T16:40:40.784Z,1.33
2023-05-10T16:44:40.512Z,2.12
2023-05-10T16:48:40.512Z,1.35
2023-05-10T16:52:40.536Z,1.5
2023-05-10T16:56:40.379Z,1.95
2023-05-10T17:00:40.979Z,2.05
2023-05-10T17:04:40.559Z,1.58
2023-05-10T17:08:40.655Z,1.73
2023-05-10T17:12:40.512Z,1.33
2023-05-10T17:16:40.441Z,1.62
2023-05-10T17:20:40.629Z,1.58
2023-05-10T17:24:40.471Z,1.48
2023-05-10T17:28:40.437Z,1.8
2023-05-10T17:32:40.391Z,1.77
2023-05-10T17:36:40.738Z,1.95
2023-05-10T17:40:40.409Z,1.9
2023-05-10T17:44:40.414Z,1.75
2023-05-10T17:48:40.649Z,2
2023-05-10T17:52:40.459Z,1.73
2023-05-10T17:56:40.564Z,1.65
2023-05-10T18:00:40.817Z,2.25
2023-05-10T18:04:40.389Z,1.9
2023-05-10T18:08:40.479Z,2.12
2023-05-10T18:12:40.564Z,1.95
2023-05-10T18:16:39.623Z,2.1
2023-05-10T18:20:39.681Z,2.6
2023-05-10T18:24:41.255Z,2
2023-05-10T18:28:40.756Z,2.1
2023-05-10T18:32:40.521Z,1.77
2023-05-10T18:36:40.480Z,2.4
2023-05-10T18:40:40.432Z,2.1
2023-05-10T18:44:39.778Z,1.85
2023-05-10T18:48:40.757Z,2.2
2023-05-10T18:52:40.442Z,2.03
2023-05-10T18:56:40.486Z,2.42
2023-05-10T19:00:40.742Z,1.98
2023-05-10T19:04:40.883Z,2.2
2023-05-10T19:08:40.434Z,2.12
2023-05-10T19:12:40.281Z,2.17
2023-05-10T19:16:42.656Z,2.37
2023-05-10T19:20:42.464Z,2.05
2023-05-10T19:24:40.871Z,2.95
2023-05-10T19:28:40.746Z,2.47
2023-05-10T19:32:41.200Z,2.95
2023-05-10T19:36:40.499Z,2.78
2023-05-10T19:40:40.900Z,2.5
2023-05-10T19:44:40.427Z,2.1
2023-05-10T19:48:40.598Z,2.85
2023-05-10T19:52:40.421Z,2.6
2023-05-10T19:56:40.455Z,2.7
2023-05-10T20:00:39.886Z,2.03
2023-05-10T20:04:40.722Z,2.87
2023-05-10T20:08:40.465Z,2.7
2023-05-10T20:12:40.463Z,2.78
2023-05-10T20:16:40.129Z,3.6
2023-05-10T20:20:41.037Z,3.33
2023-05-10T20:24:40.537Z,4.03
2023-05-10T20:28:40.358Z,3.3
2023-05-10T20:32:40.872Z,4
2023-05-10T20:36:40.424Z,3
2023-05-10T20:40:40.624Z,3.1
2023-05-10T20:44:40.421Z,3
2023-05-10T20:48:40.646Z,3.15
2023-05-10T20:52:40.855Z,2.87
2023-05-10T20:56:40.271Z,2.2
2023-05-10T21:00:40.866Z,2.55
2023-05-10T21:04:40.642Z,3.22
2023-05-10T21:08:40.609Z,2.72
2023-05-10T21:12:40.395Z,2.65
2023-05-10T21:16:40.603Z,3.58
2023-05-10T21:20:40.630Z,3.75
2023-05-10T21:24:40.267Z,2.65
2023-05-10T21:28:40.481Z,2.62
2023-05-10T21:32:40.709Z,2.95
2023-05-10T21:36:40.672Z,3.25
2023-05-10T21:40:40.562Z,2.75
2023-05-10T21:44:40.434Z,2.55
2023-05-10T21:48:40.469Z,3.9
2023-05-10T21:52:40.472Z,3.28
2023-05-10T21:56:40.553Z,2.47
2023-05-10T22:00:40.355Z,3.05
2023-05-10T22:04:40.724Z,2.95
2023-05-10T22:08:40.524Z,2.2
2023-05-10T22:12:40.458Z,3.1
2023-05-10T22:16:40.570Z,2.67
2023-05-10T22:20:40.783Z,3.25
2023-05-10T22:24:40.737Z,3.25
2023-05-10T22:28:40.932Z,3.2
2023-05-10T22:32:40.465Z,3.28
2023-05-10T22:36:40.205Z,2.95
2023-05-10T22:40:40.709Z,3.1
2023-05-10T22:44:41.219Z,3.25
2023-05-10T22:48:40.467Z,3.17
2023-05-10T22:52:40.763Z,3.58
2023-05-10T22:56:40.534Z,3.33
2023-05-10T23:00:40.450Z,3.25
2023-05-10T23:04:40.585Z,3.55
2023-05-10T23:08:40.527Z,3.55
2023-05-10T23:12:40.706Z,3.35
2023-05-10T23:16:40.537Z,3.67
2023-05-10T23:20:40.465Z,3.45
2023-05-10T23:24:40.516Z,3
2023-05-10T23:28:40.492Z,3.55
2023-05-10T23:32:40.957Z,3.75
2023-05-10T23:36:40.558Z,3.25
2023-05-10T23:40:40.458Z,3.72
2023-05-10T23:44:40.420Z,3.72
2023-05-10T23:48:39.941Z,3.8
2023-05-10T23:52:40.381Z,4.3
2023-05-10T23:56:41.274Z,3.53
